Lewis, Wisconsin
Current Conditions -  °F | °C
As of 7:35 AM on Friday 24 Oct 2014 (Local Time) from KRZN Reporting Station
Haze Haze  
Wind Chill: 44°   Ceiling: Unl
Heat Index: 47°   Visibility: 5mi
Dew Point: 46°   Wind: 6mph
Humidity: 97%   Direction: 150°SSE
Pressure: 29.91"   Gusts: NA
Location:  45.71°N, 92.4°W
Report Text: KRZN 241235Z AUTO 15005KT 5SM BR CLR 08/08 A2991 RMK AO2 T00830078
Loading
Personal Weather Stations






























Interactive Weather Map
Tropical Storm Tracking
New forecast layout! Learn more

10-Day Weather Forecast

Advertisements
Track Severe Weather on mobile